Terminal Aerodrome Forecast
Issued by NWS

Home | Current Version | Previous Version | Text Only | Print | Product List | Glossary On
Versions: 1 2 3 4 5 6 7 8 9 10 11 12 13 14 15 16 17
251
FTUS43 KIND 122325
TAFLAF
TAF
KLAF 122325Z 1300/1324 31016G25KT P6SM BKN040
     FM130200 32014KT P6SM SCT040
     FM131700 30009KT P6SM FEW040 SCT250
     FM132300 30006KT P6SM BKN250
      AMD LTD TO CLD VIS AND WIND 1302/1314=

USA.gov is the U.S. government's official web portal to all federal, state and local government web resources and services.